createdAt,value
2022-11-29T00:00:55.313Z,23.92
2022-11-29T00:05:57.066Z,23.90
2022-11-29T00:11:03.751Z,24.83
2022-11-29T00:16:09.100Z,26.30
2022-11-29T00:21:10.853Z,26.15
2022-11-29T00:26:12.531Z,25.48
2022-11-29T00:31:17.128Z,25.42
2022-11-29T00:36:19.287Z,25.40
2022-11-29T00:41:21.103Z,24.63
2022-11-29T00:46:24.261Z,24.65
2022-11-29T00:51:26.094Z,24.42
2022-11-29T00:56:27.952Z,25.40
2022-11-29T01:01:31.143Z,27.05
2022-11-29T01:06:33.015Z,24.80
2022-11-29T01:11:35.340Z,26.98
2022-11-29T01:16:38.546Z,26.40
2022-11-29T01:21:40.332Z,24.75
2022-11-29T01:26:42.020Z,28.73
2022-11-29T01:31:45.176Z,26.65
2022-11-29T01:36:46.917Z,24.00
2022-11-29T01:41:48.626Z,23.75
2022-11-29T01:46:53.131Z,23.42
2022-11-29T01:51:59.822Z,26.10
2022-11-29T01:57:05.104Z,27.25
2022-11-29T02:02:15.014Z,26.90
2022-11-29T02:07:17.108Z,24.85
2022-11-29T02:12:29.135Z,25.17
2022-11-29T02:17:40.321Z,24.48
2022-11-29T02:22:47.383Z,23.17
2022-11-29T02:28:29.578Z,26.75
2022-11-29T02:34:04.591Z,27.00
2022-11-29T02:39:25.542Z,28.10
2022-11-29T02:44:59.969Z,23.38
2022-11-29T02:50:21.169Z,23.60
2022-11-29T02:55:30.101Z,24.92
2022-11-29T03:00:36.167Z,24.45
2022-11-29T03:05:44.407Z,23.62
2022-11-29T03:10:56.047Z,23.70
2022-11-29T03:16:02.572Z,24.10
2022-11-29T03:21:17.941Z,22.92
2022-11-29T03:26:26.532Z,25.33
2022-11-29T03:31:33.902Z,25.58
2022-11-29T03:36:44.191Z,27.00
2022-11-29T03:41:51.500Z,27.90
2022-11-29T03:46:58.354Z,25.42
2022-11-29T03:52:08.193Z,26.15
2022-11-29T03:57:10.891Z,27.37
2022-11-29T04:02:53.950Z,23.60
2022-11-29T04:08:13.621Z,26.65
2022-11-29T04:13:50.483Z,24.75
2022-11-29T04:19:35.964Z,23.80
2022-11-29T04:25:22.452Z,25.25
2022-11-29T04:30:25.627Z,23.85
2022-11-29T04:35:49.921Z,24.42
2022-11-29T04:41:07.323Z,23.50
2022-11-29T04:46:22.105Z,24.63
2022-11-29T04:51:36.623Z,25.45
2022-11-29T04:56:44.761Z,26.37
2022-11-29T05:02:01.798Z,24.23
2022-11-29T05:07:08.683Z,24.80
2022-11-29T05:12:20.607Z,24.67
2022-11-29T05:17:32.385Z,24.52
2022-11-29T05:22:45.727Z,22.92
2022-11-29T05:27:56.701Z,24.35
2022-11-29T05:33:14.531Z,25.00
2022-11-29T05:38:42.283Z,26.62
2022-11-29T05:43:54.474Z,23.45
2022-11-29T05:49:04.123Z,25.75
2022-11-29T05:54:19.747Z,22.80
2022-11-29T05:59:27.171Z,25.80
2022-11-29T06:04:39.577Z,28.40
2022-11-29T06:09:45.758Z,28.65
2022-11-29T06:15:21.123Z,25.33
2022-11-29T06:20:37.841Z,25.98
2022-11-29T06:25:51.623Z,30.80
2022-11-29T06:31:01.769Z,30.37
2022-11-29T06:36:18.650Z,27.98
2022-11-29T06:41:22.709Z,28.15
2022-11-29T06:46:39.392Z,28.73
2022-11-29T06:52:16.507Z,27.45
2022-11-29T06:57:24.399Z,24.90
2022-11-29T07:02:52.014Z,23.10
2022-11-29T07:07:56.448Z,25.52
2022-11-29T07:12:58.765Z,25.67
2022-11-29T07:18:13.859Z,28.12
2022-11-29T07:23:24.763Z,27.55
2022-11-29T07:28:40.382Z,30.40
2022-11-29T07:34:09.386Z,28.77
2022-11-29T07:39:22.180Z,31.27
2022-11-29T07:44:34.075Z,31.58
2022-11-29T07:49:37.236Z,29.98
2022-11-29T07:54:40.298Z,31.00
2022-11-29T07:59:42.157Z,30.48
2022-11-29T08:04:45.649Z,29.60
2022-11-29T08:09:47.821Z,27.25
2022-11-29T08:14:49.711Z,27.85
2022-11-29T08:19:52.922Z,27.02
2022-11-29T08:24:54.729Z,27.23
2022-11-29T08:29:56.535Z,24.35
2022-11-29T08:34:59.848Z,25.37
2022-11-29T08:40:01.632Z,27.20
2022-11-29T08:45:04.126Z,25.98
2022-11-29T08:50:10.806Z,27.98
2022-11-29T08:55:12.647Z,31.35
2022-11-29T09:00:15.461Z,29.60
2022-11-29T09:05:18.986Z,29.87
2022-11-29T09:10:20.727Z,28.15
2022-11-29T09:15:22.392Z,28.50
2022-11-29T09:20:25.449Z,31.42
2022-11-29T09:25:27.550Z,27.65
2022-11-29T09:30:29.614Z,29.05
2022-11-29T09:35:33.292Z,28.52
2022-11-29T09:40:42.256Z,31.02
2022-11-29T09:45:48.068Z,31.17
2022-11-29T09:50:57.299Z,31.83
2022-11-29T09:56:14.428Z,33.53
2022-11-29T10:01:21.511Z,28.23
2022-11-29T10:06:27.943Z,27.75
2022-11-29T10:11:34.918Z,31.23
2022-11-29T10:16:43.648Z,31.17
2022-11-29T10:21:53.860Z,31.35
2022-11-29T10:26:55.755Z,33.20
2022-11-29T10:31:58.178Z,31.87
2022-11-29T10:37:01.722Z,31.12
2022-11-29T10:42:04.687Z,31.65
2022-11-29T10:47:10.666Z,30.55
2022-11-29T10:52:18.016Z,30.10
2022-11-29T10:57:21.738Z,29.45
2022-11-29T11:02:23.586Z,32.60
2022-11-29T11:07:31.050Z,30.65
2022-11-29T11:12:34.887Z,31.08
2022-11-29T11:17:36.603Z,33.83
2022-11-29T11:22:40.605Z,34.38
2022-11-29T11:27:42.375Z,32.63
2022-11-29T11:33:08.608Z,32.60
2022-11-29T11:38:17.375Z,30.12
2022-11-29T11:43:21.139Z,30.15
2022-11-29T11:48:23.069Z,30.65
2022-11-29T11:53:28.891Z,32.28
2022-11-29T11:58:33.059Z,30.75
2022-11-29T12:03:52.481Z,32.75
2022-11-29T12:09:02.039Z,33.25
2022-11-29T12:14:05.940Z,31.17
2022-11-29T12:19:16.564Z,34.45
2022-11-29T12:24:27.922Z,33.58
2022-11-29T12:29:35.587Z,31.33
2022-11-29T12:34:52.643Z,32.58
2022-11-29T12:40:08.222Z,32.33
2022-11-29T12:45:33.515Z,31.73
2022-11-29T12:50:45.452Z,30.37
2022-11-29T12:55:57.184Z,33.03
2022-11-29T13:01:07.704Z,33.03
2022-11-29T13:06:20.641Z,32.35
2022-11-29T13:11:28.368Z,32.00
2022-11-29T13:16:41.131Z,32.28
2022-11-29T13:21:51.326Z,34.53
2022-11-29T13:26:55.195Z,33.92
2022-11-29T13:31:57.933Z,33.45
2022-11-29T13:37:07.974Z,33.90
2022-11-29T13:42:19.928Z,34.33
2022-11-29T13:47:22.200Z,36.03
2022-11-29T13:52:31.060Z,35.80
2022-11-29T13:58:14.827Z,33.90
2022-11-29T14:03:30.136Z,33.13
2022-11-29T14:08:55.051Z,33.45
2022-11-29T14:14:03.348Z,34.40
2022-11-29T14:19:19.616Z,35.50
2022-11-29T14:24:40.682Z,35.10
2022-11-29T14:29:54.193Z,38.03
2022-11-29T14:35:02.717Z,36.15
2022-11-29T14:40:20.482Z,39.03
2022-11-29T14:45:27.102Z,36.22
2022-11-29T14:50:32.621Z,37.17
2022-11-29T14:55:40.681Z,36.83
2022-11-29T15:01:09.710Z,34.90
2022-11-29T15:06:17.503Z,39.95
2022-11-29T15:11:30.264Z,37.17
2022-11-29T15:16:49.438Z,35.35
2022-11-29T15:21:59.953Z,34.03
2022-11-29T15:27:03.015Z,32.30
2022-11-29T15:32:06.657Z,34.38
2022-11-29T15:37:22.040Z,32.33
2022-11-29T15:47:31.510Z,33.05
2022-11-29T15:52:38.165Z,30.55
2022-11-29T15:57:42.913Z,33.47
2022-11-29T16:02:50.293Z,30.77
2022-11-29T16:07:54.762Z,32.83
2022-11-29T16:12:58.662Z,32.43
2022-11-29T16:18:05.740Z,31.62
2022-11-29T16:23:12.891Z,31.70
2022-11-29T16:28:14.838Z,32.47
2022-11-29T16:33:22.694Z,33.88
2022-11-29T16:38:24.553Z,30.52
2022-11-29T16:43:47.932Z,30.67
2022-11-29T16:48:52.048Z,30.00
2022-11-29T16:53:54.169Z,30.55
2022-11-29T16:59:25.064Z,29.75
2022-11-29T17:04:32.624Z,31.45
2022-11-29T17:09:35.129Z,31.45
2022-11-29T17:14:36.942Z,34.70
2022-11-29T17:19:40.091Z,33.90
2022-11-29T17:24:46.364Z,31.52
2022-11-29T17:29:49.346Z,32.45
2022-11-29T17:34:52.552Z,34.08
2022-11-29T17:39:54.343Z,34.58
2022-11-29T17:44:56.055Z,32.53
2022-11-29T17:49:59.288Z,34.63
2022-11-29T17:55:01.180Z,32.88
2022-11-29T18:00:04.040Z,34.28
2022-11-29T18:05:08.280Z,33.53
2022-11-29T18:10:17.681Z,33.20
2022-11-29T18:15:19.695Z,32.13
2022-11-29T18:20:22.954Z,32.08
2022-11-29T18:25:40.485Z,30.15
2022-11-29T18:30:42.325Z,31.67
2022-11-29T18:35:45.509Z,32.25
2022-11-29T18:40:47.411Z,34.22
2022-11-29T18:45:49.116Z,31.50
2022-11-29T18:50:52.252Z,32.05
2022-11-29T18:56:00.245Z,32.53
2022-11-29T19:01:06.515Z,30.42
2022-11-29T19:06:11.540Z,29.98
2022-11-29T19:11:15.041Z,33.38
2022-11-29T19:16:18.250Z,29.27
2022-11-29T19:21:23.177Z,33.33
2022-11-29T19:26:26.494Z,31.92
2022-11-29T19:31:28.659Z,30.77
2022-11-29T19:36:32.070Z,33.05
2022-11-29T19:41:35.499Z,31.90
2022-11-29T19:46:39.248Z,30.80
2022-11-29T19:51:42.431Z,32.53
2022-11-29T19:56:44.196Z,30.77
2022-11-29T20:01:46.059Z,33.33
2022-11-29T20:06:49.289Z,30.73
2022-11-29T20:11:51.024Z,29.12
2022-11-29T20:16:52.767Z,28.05
2022-11-29T20:21:55.916Z,28.25
2022-11-29T20:26:57.667Z,28.67
2022-11-29T20:31:59.545Z,29.58
2022-11-29T20:37:29.932Z,29.87
2022-11-29T20:43:09.809Z,29.40
2022-11-29T20:48:17.500Z,28.08
2022-11-29T20:53:32.643Z,35.83
2022-11-29T20:58:34.709Z,35.67
2022-11-29T21:03:36.619Z,31.80
2022-11-29T21:08:39.850Z,31.83
2022-11-29T21:13:41.990Z,30.08
2022-11-29T21:18:44.549Z,27.48
2022-11-29T21:23:55.398Z,28.75
2022-11-29T21:29:07.219Z,28.50
2022-11-29T21:34:09.015Z,29.42
2022-11-29T21:39:15.033Z,27.23
2022-11-29T21:44:16.717Z,25.88
2022-11-29T21:49:18.420Z,25.33
2022-11-29T21:54:21.472Z,24.45
2022-11-29T21:59:23.325Z,27.10
2022-11-29T22:04:25.073Z,26.65
2022-11-29T22:09:28.155Z,26.42
2022-11-29T22:14:29.864Z,26.80
2022-11-29T22:19:33.065Z,25.05
2022-11-29T22:24:36.913Z,26.25
2022-11-29T22:29:38.863Z,33.13
2022-11-29T22:34:40.633Z,25.65
2022-11-29T22:39:43.666Z,26.12
2022-11-29T22:44:45.652Z,26.35
2022-11-29T22:49:47.603Z,29.08
2022-11-29T22:54:50.696Z,26.17
2022-11-29T22:59:52.478Z,27.85
2022-11-29T23:04:54.321Z,33.70
2022-11-29T23:09:57.459Z,29.40
2022-11-29T23:14:59.412Z,29.95
2022-11-29T23:20:01.262Z,28.08
2022-11-29T23:25:05.172Z,30.20
2022-11-29T23:30:08.032Z,26.30
2022-11-29T23:35:09.874Z,26.60
2022-11-29T23:40:13.783Z,27.83
2022-11-29T23:45:15.628Z,28.60
2022-11-29T23:50:17.412Z,27.27
2022-11-29T23:55:20.711Z,28.65
